sensor_id;sensor_type;location;lat;lon;timestamp;P1;durP1;ratioP1;P2;durP2;ratioP2
8536;SDS011;4306;50.210;10.628;2024-01-11T00:01:08;21.37;;;12.00;;
8536;SDS011;4306;50.210;10.628;2024-01-11T00:03:37;23.80;;;11.33;;
8536;SDS011;4306;50.210;10.628;2024-01-11T00:06:10;24.80;;;12.00;;
8536;SDS011;4306;50.210;10.628;2024-01-11T00:08:38;22.63;;;11.43;;
8536;SDS011;4306;50.210;10.628;2024-01-11T00:11:05;26.27;;;11.70;;
8536;SDS011;4306;50.210;10.628;2024-01-11T00:13:32;22.10;;;11.33;;
8536;SDS011;4306;50.210;10.628;2024-01-11T00:15:59;19.53;;;10.57;;
8536;SDS011;4306;50.210;10.628;2024-01-11T00:18:26;22.20;;;11.37;;
8536;SDS011;4306;50.210;10.628;2024-01-11T00:20:54;22.13;;;11.13;;
8536;SDS011;4306;50.210;10.628;2024-01-11T00:23:21;24.93;;;11.87;;
8536;SDS011;4306;50.210;10.628;2024-01-11T00:25:48;25.73;;;11.80;;
8536;SDS011;4306;50.210;10.628;2024-01-11T00:28:15;24.07;;;11.13;;
8536;SDS011;4306;50.210;10.628;2024-01-11T00:30:42;26.13;;;12.23;;
8536;SDS011;4306;50.210;10.628;2024-01-11T00:33:09;24.77;;;12.37;;
8536;SDS011;4306;50.210;10.628;2024-01-11T00:35:36;26.00;;;11.40;;
8536;SDS011;4306;50.210;10.628;2024-01-11T00:38:05;23.23;;;11.20;;
8536;SDS011;4306;50.210;10.628;2024-01-11T00:40:32;21.70;;;11.77;;
8536;SDS011;4306;50.210;10.628;2024-01-11T00:42:59;26.90;;;11.33;;
8536;SDS011;4306;50.210;10.628;2024-01-11T00:45:26;23.70;;;12.57;;
8536;SDS011;4306;50.210;10.628;2024-01-11T00:47:53;26.33;;;11.90;;
8536;SDS011;4306;50.210;10.628;2024-01-11T00:50:20;24.40;;;11.60;;
8536;SDS011;4306;50.210;10.628;2024-01-11T00:52:47;24.97;;;11.87;;
8536;SDS011;4306;50.210;10.628;2024-01-11T00:55:15;22.80;;;11.33;;
8536;SDS011;4306;50.210;10.628;2024-01-11T00:57:42;24.83;;;11.53;;
8536;SDS011;4306;50.210;10.628;2024-01-11T01:00:10;24.40;;;12.50;;
8536;SDS011;4306;50.210;10.628;2024-01-11T01:02:40;25.50;;;13.17;;
8536;SDS011;4306;50.210;10.628;2024-01-11T01:05:07;21.53;;;12.10;;
8536;SDS011;4306;50.210;10.628;2024-01-11T01:07:35;24.80;;;12.33;;
8536;SDS011;4306;50.210;10.628;2024-01-11T01:10:02;24.03;;;11.60;;
8536;SDS011;4306;50.210;10.628;2024-01-11T01:12:31;21.33;;;11.37;;
8536;SDS011;4306;50.210;10.628;2024-01-11T01:14:57;28.23;;;13.33;;
8536;SDS011;4306;50.210;10.628;2024-01-11T01:17:25;28.10;;;13.30;;
8536;SDS011;4306;50.210;10.628;2024-01-11T01:19:51;26.27;;;12.37;;
8536;SDS011;4306;50.210;10.628;2024-01-11T01:22:18;25.30;;;12.13;;
8536;SDS011;4306;50.210;10.628;2024-01-11T01:24:45;25.23;;;11.10;;
8536;SDS011;4306;50.210;10.628;2024-01-11T01:27:12;22.73;;;11.77;;
8536;SDS011;4306;50.210;10.628;2024-01-11T01:29:41;22.53;;;11.53;;
8536;SDS011;4306;50.210;10.628;2024-01-11T01:32:08;22.13;;;11.63;;
8536;SDS011;4306;50.210;10.628;2024-01-11T01:34:35;22.53;;;11.70;;
8536;SDS011;4306;50.210;10.628;2024-01-11T01:37:02;26.60;;;11.63;;
8536;SDS011;4306;50.210;10.628;2024-01-11T01:39:29;24.80;;;11.67;;
8536;SDS011;4306;50.210;10.628;2024-01-11T01:41:56;25.73;;;12.30;;
8536;SDS011;4306;50.210;10.628;2024-01-11T01:44:23;23.30;;;11.43;;
8536;SDS011;4306;50.210;10.628;2024-01-11T01:46:52;23.97;;;12.23;;
8536;SDS011;4306;50.210;10.628;2024-01-11T01:49:19;26.70;;;12.03;;
8536;SDS011;4306;50.210;10.628;2024-01-11T01:51:47;24.70;;;12.13;;
8536;SDS011;4306;50.210;10.628;2024-01-11T01:54:16;23.53;;;11.33;;
8536;SDS011;4306;50.210;10.628;2024-01-11T01:56:45;23.77;;;12.00;;
8536;SDS011;4306;50.210;10.628;2024-01-11T01:59:12;22.70;;;11.73;;
8536;SDS011;4306;50.210;10.628;2024-01-11T02:01:41;27.13;;;11.97;;
8536;SDS011;4306;50.210;10.628;2024-01-11T02:04:10;24.20;;;12.23;;
8536;SDS011;4306;50.210;10.628;2024-01-11T02:06:37;26.60;;;11.70;;
8536;SDS011;4306;50.210;10.628;2024-01-11T02:09:04;20.77;;;10.73;;
8536;SDS011;4306;50.210;10.628;2024-01-11T02:11:34;22.73;;;10.97;;
8536;SDS011;4306;50.210;10.628;2024-01-11T02:14:01;29.37;;;13.07;;
8536;SDS011;4306;50.210;10.628;2024-01-11T02:16:28;22.37;;;11.80;;
8536;SDS011;4306;50.210;10.628;2024-01-11T02:18:55;24.43;;;12.47;;
8536;SDS011;4306;50.210;10.628;2024-01-11T02:21:25;24.40;;;11.87;;
8536;SDS011;4306;50.210;10.628;2024-01-11T02:24:02;24.13;;;11.93;;
8536;SDS011;4306;50.210;10.628;2024-01-11T02:26:30;27.93;;;11.83;;
8536;SDS011;4306;50.210;10.628;2024-01-11T02:28:57;26.17;;;11.60;;
8536;SDS011;4306;50.210;10.628;2024-01-11T02:31:24;25.90;;;12.17;;
8536;SDS011;4306;50.210;10.628;2024-01-11T02:33:51;22.97;;;11.07;;
8536;SDS011;4306;50.210;10.628;2024-01-11T02:36:19;21.83;;;10.80;;
8536;SDS011;4306;50.210;10.628;2024-01-11T02:38:47;25.10;;;12.13;;
8536;SDS011;4306;50.210;10.628;2024-01-11T02:41:16;24.70;;;12.17;;
8536;SDS011;4306;50.210;10.628;2024-01-11T02:43:46;22.43;;;11.27;;
8536;SDS011;4306;50.210;10.628;2024-01-11T02:46:14;23.00;;;11.43;;
8536;SDS011;4306;50.210;10.628;2024-01-11T02:48:41;25.30;;;12.37;;
8536;SDS011;4306;50.210;10.628;2024-01-11T02:51:08;26.93;;;11.43;;
8536;SDS011;4306;50.210;10.628;2024-01-11T02:53:35;24.53;;;12.50;;
8536;SDS011;4306;50.210;10.628;2024-01-11T02:56:03;24.60;;;11.90;;
8536;SDS011;4306;50.210;10.628;2024-01-11T02:58:31;25.70;;;11.13;;
8536;SDS011;4306;50.210;10.628;2024-01-11T03:00:58;25.00;;;11.57;;
8536;SDS011;4306;50.210;10.628;2024-01-11T03:03:25;26.57;;;12.20;;
8536;SDS011;4306;50.210;10.628;2024-01-11T03:05:52;23.90;;;11.60;;
8536;SDS011;4306;50.210;10.628;2024-01-11T03:08:19;20.83;;;11.53;;
8536;SDS011;4306;50.210;10.628;2024-01-11T03:10:46;27.27;;;11.87;;
8536;SDS011;4306;50.210;10.628;2024-01-11T03:13:13;26.83;;;11.60;;
8536;SDS011;4306;50.210;10.628;2024-01-11T03:15:42;25.40;;;12.00;;
8536;SDS011;4306;50.210;10.628;2024-01-11T03:18:09;26.43;;;12.33;;
8536;SDS011;4306;50.210;10.628;2024-01-11T03:20:36;25.40;;;11.60;;
8536;SDS011;4306;50.210;10.628;2024-01-11T03:23:03;23.50;;;11.87;;
8536;SDS011;4306;50.210;10.628;2024-01-11T03:25:30;22.77;;;11.27;;
8536;SDS011;4306;50.210;10.628;2024-01-11T03:27:57;22.10;;;11.73;;
8536;SDS011;4306;50.210;10.628;2024-01-11T03:30:25;24.70;;;11.37;;
8536;SDS011;4306;50.210;10.628;2024-01-11T03:32:53;23.33;;;11.87;;
8536;SDS011;4306;50.210;10.628;2024-01-11T03:35:20;25.97;;;12.47;;
8536;SDS011;4306;50.210;10.628;2024-01-11T03:37:47;23.10;;;11.83;;
8536;SDS011;4306;50.210;10.628;2024-01-11T03:40:14;21.37;;;10.53;;
8536;SDS011;4306;50.210;10.628;2024-01-11T03:42:41;26.40;;;11.67;;
8536;SDS011;4306;50.210;10.628;2024-01-11T03:45:09;25.00;;;12.47;;
8536;SDS011;4306;50.210;10.628;2024-01-11T03:47:36;23.10;;;11.07;;
8536;SDS011;4306;50.210;10.628;2024-01-11T03:50:05;25.43;;;11.90;;
8536;SDS011;4306;50.210;10.628;2024-01-11T03:52:32;24.20;;;11.87;;
8536;SDS011;4306;50.210;10.628;2024-01-11T03:54:59;27.87;;;12.97;;
8536;SDS011;4306;50.210;10.628;2024-01-11T03:57:26;25.10;;;11.43;;
8536;SDS011;4306;50.210;10.628;2024-01-11T03:59:53;24.17;;;12.13;;
8536;SDS011;4306;50.210;10.628;2024-01-11T04:02:20;22.27;;;11.20;;
8536;SDS011;4306;50.210;10.628;2024-01-11T04:04:47;22.40;;;11.73;;
8536;SDS011;4306;50.210;10.628;2024-01-11T04:07:16;23.73;;;11.90;;
8536;SDS011;4306;50.210;10.628;2024-01-11T04:09:43;23.87;;;12.43;;
8536;SDS011;4306;50.210;10.628;2024-01-11T04:12:10;23.73;;;11.83;;
8536;SDS011;4306;50.210;10.628;2024-01-11T04:14:37;25.33;;;12.80;;
8536;SDS011;4306;50.210;10.628;2024-01-11T04:17:05;24.57;;;10.97;;
8536;SDS011;4306;50.210;10.628;2024-01-11T04:19:32;25.53;;;12.13;;
8536;SDS011;4306;50.210;10.628;2024-01-11T04:21:59;26.83;;;11.90;;
8536;SDS011;4306;50.210;10.628;2024-01-11T04:24:28;21.67;;;11.33;;
8536;SDS011;4306;50.210;10.628;2024-01-11T04:26:55;24.17;;;11.47;;
8536;SDS011;4306;50.210;10.628;2024-01-11T04:29:22;26.30;;;11.50;;
8536;SDS011;4306;50.210;10.628;2024-01-11T04:31:49;23.70;;;11.97;;
8536;SDS011;4306;50.210;10.628;2024-01-11T04:34:16;27.23;;;11.87;;
8536;SDS011;4306;50.210;10.628;2024-01-11T04:36:43;25.67;;;11.80;;
8536;SDS011;4306;50.210;10.628;2024-01-11T04:39:10;24.60;;;11.37;;
8536;SDS011;4306;50.210;10.628;2024-01-11T04:41:39;24.87;;;11.53;;
8536;SDS011;4306;50.210;10.628;2024-01-11T04:44:06;24.67;;;11.70;;
8536;SDS011;4306;50.210;10.628;2024-01-11T04:46:33;27.70;;;12.70;;
8536;SDS011;4306;50.210;10.628;2024-01-11T04:49:01;24.23;;;11.53;;
8536;SDS011;4306;50.210;10.628;2024-01-11T04:51:28;24.60;;;12.13;;
8536;SDS011;4306;50.210;10.628;2024-01-11T04:53:55;22.23;;;11.00;;
8536;SDS011;4306;50.210;10.628;2024-01-11T04:56:22;24.03;;;11.77;;
8536;SDS011;4306;50.210;10.628;2024-01-11T04:58:50;25.53;;;11.80;;
8536;SDS011;4306;50.210;10.628;2024-01-11T05:01:17;25.73;;;12.50;;
8536;SDS011;4306;50.210;10.628;2024-01-11T05:03:45;24.00;;;11.67;;
8536;SDS011;4306;50.210;10.628;2024-01-11T05:06:17;27.07;;;13.00;;
8536;SDS011;4306;50.210;10.628;2024-01-11T05:08:45;26.80;;;12.40;;
8536;SDS011;4306;50.210;10.628;2024-01-11T05:11:17;30.33;;;12.10;;
8536;SDS011;4306;50.210;10.628;2024-01-11T05:13:44;27.53;;;12.53;;
8536;SDS011;4306;50.210;10.628;2024-01-11T05:16:21;26.20;;;10.93;;
8536;SDS011;4306;50.210;10.628;2024-01-11T05:18:49;23.73;;;11.07;;
8536;SDS011;4306;50.210;10.628;2024-01-11T05:21:17;28.93;;;12.37;;
8536;SDS011;4306;50.210;10.628;2024-01-11T05:23:44;32.00;;;14.60;;
8536;SDS011;4306;50.210;10.628;2024-01-11T05:26:12;37.60;;;17.93;;
8536;SDS011;4306;50.210;10.628;2024-01-11T05:28:41;37.63;;;17.67;;
8536;SDS011;4306;50.210;10.628;2024-01-11T05:31:09;36.43;;;18.27;;
8536;SDS011;4306;50.210;10.628;2024-01-11T05:33:38;35.40;;;16.03;;
8536;SDS011;4306;50.210;10.628;2024-01-11T05:36:06;39.40;;;18.80;;
8536;SDS011;4306;50.210;10.628;2024-01-11T05:38:33;39.97;;;17.80;;
8536;SDS011;4306;50.210;10.628;2024-01-11T05:41:01;33.10;;;15.90;;
8536;SDS011;4306;50.210;10.628;2024-01-11T05:43:28;28.03;;;14.30;;
8536;SDS011;4306;50.210;10.628;2024-01-11T05:45:55;28.33;;;14.80;;
8536;SDS011;4306;50.210;10.628;2024-01-11T05:48:23;26.87;;;13.57;;
8536;SDS011;4306;50.210;10.628;2024-01-11T05:50:51;31.80;;;14.93;;
8536;SDS011;4306;50.210;10.628;2024-01-11T05:53:18;31.93;;;14.67;;
8536;SDS011;4306;50.210;10.628;2024-01-11T05:55:46;39.50;;;15.83;;
8536;SDS011;4306;50.210;10.628;2024-01-11T05:58:13;35.83;;;16.93;;
8536;SDS011;4306;50.210;10.628;2024-01-11T06:00:40;34.77;;;16.60;;
8536;SDS011;4306;50.210;10.628;2024-01-11T06:03:07;31.57;;;15.90;;
8536;SDS011;4306;50.210;10.628;2024-01-11T06:05:34;33.83;;;15.03;;
8536;SDS011;4306;50.210;10.628;2024-01-11T06:08:03;30.27;;;14.63;;
8536;SDS011;4306;50.210;10.628;2024-01-11T06:10:30;27.87;;;12.40;;
8536;SDS011;4306;50.210;10.628;2024-01-11T06:12:57;25.93;;;12.33;;
8536;SDS011;4306;50.210;10.628;2024-01-11T06:15:24;28.13;;;12.40;;
8536;SDS011;4306;50.210;10.628;2024-01-11T06:17:51;39.43;;;17.33;;
8536;SDS011;4306;50.210;10.628;2024-01-11T06:20:18;148.10;;;41.03;;
8536;SDS011;4306;50.210;10.628;2024-01-11T06:22:45;80.93;;;27.57;;
8536;SDS011;4306;50.210;10.628;2024-01-11T06:25:14;49.63;;;22.57;;
8536;SDS011;4306;50.210;10.628;2024-01-11T06:27:41;56.97;;;25.53;;
8536;SDS011;4306;50.210;10.628;2024-01-11T06:30:10;30.80;;;15.37;;
8536;SDS011;4306;50.210;10.628;2024-01-11T06:32:37;36.37;;;16.77;;
8536;SDS011;4306;50.210;10.628;2024-01-11T06:35:05;33.60;;;14.40;;
8536;SDS011;4306;50.210;10.628;2024-01-11T06:37:33;33.37;;;15.57;;
8536;SDS011;4306;50.210;10.628;2024-01-11T06:40:00;42.23;;;17.57;;
8536;SDS011;4306;50.210;10.628;2024-01-11T06:42:30;43.37;;;20.27;;
8536;SDS011;4306;50.210;10.628;2024-01-11T06:44:57;44.50;;;21.13;;
8536;SDS011;4306;50.210;10.628;2024-01-11T06:47:24;35.00;;;16.90;;
8536;SDS011;4306;50.210;10.628;2024-01-11T06:49:51;30.50;;;13.77;;
8536;SDS011;4306;50.210;10.628;2024-01-11T06:52:18;29.60;;;14.97;;
8536;SDS011;4306;50.210;10.628;2024-01-11T06:54:45;39.73;;;17.50;;
8536;SDS011;4306;50.210;10.628;2024-01-11T06:57:12;32.67;;;16.53;;
8536;SDS011;4306;50.210;10.628;2024-01-11T06:59:41;34.73;;;17.63;;
8536;SDS011;4306;50.210;10.628;2024-01-11T07:02:08;36.50;;;20.03;;
8536;SDS011;4306;50.210;10.628;2024-01-11T07:04:36;43.30;;;20.53;;
8536;SDS011;4306;50.210;10.628;2024-01-11T07:07:03;40.80;;;20.07;;
8536;SDS011;4306;50.210;10.628;2024-01-11T07:09:30;33.90;;;17.67;;
8536;SDS011;4306;50.210;10.628;2024-01-11T07:11:57;24.87;;;12.87;;
8536;SDS011;4306;50.210;10.628;2024-01-11T07:14:24;26.70;;;13.20;;
8536;SDS011;4306;50.210;10.628;2024-01-11T07:16:52;39.50;;;18.47;;
8536;SDS011;4306;50.210;10.628;2024-01-11T07:19:19;38.40;;;18.90;;
8536;SDS011;4306;50.210;10.628;2024-01-11T07:21:47;37.33;;;19.47;;
8536;SDS011;4306;50.210;10.628;2024-01-11T07:24:14;35.77;;;18.77;;
8536;SDS011;4306;50.210;10.628;2024-01-11T07:26:43;94.30;;;34.87;;
8536;SDS011;4306;50.210;10.628;2024-01-11T07:29:10;36.30;;;17.17;;
8536;SDS011;4306;50.210;10.628;2024-01-11T07:31:37;34.07;;;16.67;;
8536;SDS011;4306;50.210;10.628;2024-01-11T07:34:05;38.60;;;16.47;;
8536;SDS011;4306;50.210;10.628;2024-01-11T07:36:32;42.23;;;20.47;;
8536;SDS011;4306;50.210;10.628;2024-01-11T07:38:59;48.17;;;21.70;;
8536;SDS011;4306;50.210;10.628;2024-01-11T07:41:27;46.13;;;21.93;;
8536;SDS011;4306;50.210;10.628;2024-01-11T07:43:54;42.33;;;19.77;;
8536;SDS011;4306;50.210;10.628;2024-01-11T07:46:23;35.07;;;17.30;;
8536;SDS011;4306;50.210;10.628;2024-01-11T07:48:50;42.60;;;20.77;;
8536;SDS011;4306;50.210;10.628;2024-01-11T07:51:19;50.47;;;22.20;;
8536;SDS011;4306;50.210;10.628;2024-01-11T07:53:46;58.93;;;25.30;;
8536;SDS011;4306;50.210;10.628;2024-01-11T07:56:13;53.90;;;26.10;;
8536;SDS011;4306;50.210;10.628;2024-01-11T07:58:40;59.67;;;29.23;;
8536;SDS011;4306;50.210;10.628;2024-01-11T08:01:07;54.07;;;27.17;;
8536;SDS011;4306;50.210;10.628;2024-01-11T08:03:37;49.57;;;24.03;;
8536;SDS011;4306;50.210;10.628;2024-01-11T08:06:06;35.83;;;19.03;;
8536;SDS011;4306;50.210;10.628;2024-01-11T08:08:36;32.27;;;16.43;;
8536;SDS011;4306;50.210;10.628;2024-01-11T08:11:04;24.80;;;13.43;;
8536;SDS011;4306;50.210;10.628;2024-01-11T08:13:31;27.97;;;14.07;;
8536;SDS011;4306;50.210;10.628;2024-01-11T08:16:00;26.83;;;13.90;;
8536;SDS011;4306;50.210;10.628;2024-01-11T08:18:28;33.27;;;18.40;;
8536;SDS011;4306;50.210;10.628;2024-01-11T08:20:56;50.13;;;24.57;;
8536;SDS011;4306;50.210;10.628;2024-01-11T08:23:23;45.50;;;23.87;;
8536;SDS011;4306;50.210;10.628;2024-01-11T08:25:51;45.40;;;23.63;;
8536;SDS011;4306;50.210;10.628;2024-01-11T08:28:18;43.57;;;23.20;;
8536;SDS011;4306;50.210;10.628;2024-01-11T08:30:45;43.03;;;21.87;;
8536;SDS011;4306;50.210;10.628;2024-01-11T08:33:12;43.67;;;21.73;;
8536;SDS011;4306;50.210;10.628;2024-01-11T08:35:40;39.07;;;20.50;;
8536;SDS011;4306;50.210;10.628;2024-01-11T08:38:06;41.50;;;21.77;;
8536;SDS011;4306;50.210;10.628;2024-01-11T08:40:33;41.03;;;20.53;;
8536;SDS011;4306;50.210;10.628;2024-01-11T08:43:02;37.50;;;20.80;;
8536;SDS011;4306;50.210;10.628;2024-01-11T08:45:31;48.97;;;24.70;;
8536;SDS011;4306;50.210;10.628;2024-01-11T08:47:58;43.50;;;23.57;;
8536;SDS011;4306;50.210;10.628;2024-01-11T08:50:25;46.10;;;25.77;;
8536;SDS011;4306;50.210;10.628;2024-01-11T08:52:53;46.67;;;27.00;;
8536;SDS011;4306;50.210;10.628;2024-01-11T08:55:20;51.10;;;28.37;;
8536;SDS011;4306;50.210;10.628;2024-01-11T08:57:47;50.87;;;26.77;;
8536;SDS011;4306;50.210;10.628;2024-01-11T09:00:16;53.47;;;29.97;;
8536;SDS011;4306;50.210;10.628;2024-01-11T09:02:43;71.33;;;36.73;;
8536;SDS011;4306;50.210;10.628;2024-01-11T09:05:10;66.50;;;32.30;;
8536;SDS011;4306;50.210;10.628;2024-01-11T09:07:37;51.40;;;27.53;;
8536;SDS011;4306;50.210;10.628;2024-01-11T09:10:05;46.13;;;24.07;;
8536;SDS011;4306;50.210;10.628;2024-01-11T09:12:34;32.67;;;17.70;;
8536;SDS011;4306;50.210;10.628;2024-01-11T09:15:02;35.27;;;18.30;;
8536;SDS011;4306;50.210;10.628;2024-01-11T09:17:31;39.70;;;20.30;;
8536;SDS011;4306;50.210;10.628;2024-01-11T09:19:58;43.17;;;20.60;;
8536;SDS011;4306;50.210;10.628;2024-01-11T09:22:25;34.80;;;17.73;;
8536;SDS011;4306;50.210;10.628;2024-01-11T09:24:52;38.63;;;19.33;;
8536;SDS011;4306;50.210;10.628;2024-01-11T09:27:19;35.33;;;18.77;;
8536;SDS011;4306;50.210;10.628;2024-01-11T09:29:47;35.00;;;18.47;;
8536;SDS011;4306;50.210;10.628;2024-01-11T09:32:14;35.87;;;19.63;;
8536;SDS011;4306;50.210;10.628;2024-01-11T09:34:42;33.77;;;17.90;;
8536;SDS011;4306;50.210;10.628;2024-01-11T09:37:10;29.73;;;16.23;;
8536;SDS011;4306;50.210;10.628;2024-01-11T09:39:37;33.53;;;17.47;;
8536;SDS011;4306;50.210;10.628;2024-01-11T09:42:06;35.17;;;18.57;;
8536;SDS011;4306;50.210;10.628;2024-01-11T09:44:35;30.43;;;17.63;;
8536;SDS011;4306;50.210;10.628;2024-01-11T09:47:04;30.47;;;16.13;;
8536;SDS011;4306;50.210;10.628;2024-01-11T09:49:32;33.80;;;16.87;;
8536;SDS011;4306;50.210;10.628;2024-01-11T09:52:04;30.13;;;16.33;;
8536;SDS011;4306;50.210;10.628;2024-01-11T09:54:33;34.27;;;16.53;;
8536;SDS011;4306;50.210;10.628;2024-01-11T09:57:01;34.30;;;18.37;;
8536;SDS011;4306;50.210;10.628;2024-01-11T09:59:30;34.73;;;16.03;;
8536;SDS011;4306;50.210;10.628;2024-01-11T10:01:59;28.07;;;15.43;;
8536;SDS011;4306;50.210;10.628;2024-01-11T10:04:27;33.30;;;16.30;;
8536;SDS011;4306;50.210;10.628;2024-01-11T10:06:55;37.63;;;19.77;;
8536;SDS011;4306;50.210;10.628;2024-01-11T10:09:24;36.93;;;19.00;;
8536;SDS011;4306;50.210;10.628;2024-01-11T10:11:51;40.17;;;19.53;;
8536;SDS011;4306;50.210;10.628;2024-01-11T10:14:20;37.53;;;18.60;;
8536;SDS011;4306;50.210;10.628;2024-01-11T10:16:47;33.60;;;17.33;;
8536;SDS011;4306;50.210;10.628;2024-01-11T10:19:14;29.87;;;16.47;;
8536;SDS011;4306;50.210;10.628;2024-01-11T10:21:44;31.27;;;17.53;;
8536;SDS011;4306;50.210;10.628;2024-01-11T10:24:15;36.07;;;17.80;;
8536;SDS011;4306;50.210;10.628;2024-01-11T10:26:46;33.83;;;17.97;;
8536;SDS011;4306;50.210;10.628;2024-01-11T10:29:13;36.23;;;20.20;;
8536;SDS011;4306;50.210;10.628;2024-01-11T10:31:43;36.10;;;18.97;;
8536;SDS011;4306;50.210;10.628;2024-01-11T10:34:10;36.83;;;19.27;;
8536;SDS011;4306;50.210;10.628;2024-01-11T10:36:37;35.87;;;18.77;;
8536;SDS011;4306;50.210;10.628;2024-01-11T10:39:05;35.97;;;18.40;;
8536;SDS011;4306;50.210;10.628;2024-01-11T10:41:37;34.43;;;18.77;;
8536;SDS011;4306;50.210;10.628;2024-01-11T10:44:09;34.13;;;17.37;;
8536;SDS011;4306;50.210;10.628;2024-01-11T10:46:45;31.63;;;15.73;;
8536;SDS011;4306;50.210;10.628;2024-01-11T10:49:14;30.87;;;16.27;;
8536;SDS011;4306;50.210;10.628;2024-01-11T10:51:45;25.83;;;14.63;;
8536;SDS011;4306;50.210;10.628;2024-01-11T11:05:42;25.93;;;12.70;;
8536;SDS011;4306;50.210;10.628;2024-01-11T11:08:10;25.93;;;12.63;;
8536;SDS011;4306;50.210;10.628;2024-01-11T11:10:39;23.73;;;12.83;;
8536;SDS011;4306;50.210;10.628;2024-01-11T11:13:08;25.40;;;13.10;;
8536;SDS011;4306;50.210;10.628;2024-01-11T11:15:36;27.77;;;13.40;;
8536;SDS011;4306;50.210;10.628;2024-01-11T11:18:05;24.50;;;12.97;;
8536;SDS011;4306;50.210;10.628;2024-01-11T11:20:33;22.23;;;11.60;;
8536;SDS011;4306;50.210;10.628;2024-01-11T11:23:05;25.27;;;12.03;;
8536;SDS011;4306;50.210;10.628;2024-01-11T11:25:35;23.43;;;12.63;;
8536;SDS011;4306;50.210;10.628;2024-01-11T11:28:04;25.00;;;13.03;;
8536;SDS011;4306;50.210;10.628;2024-01-11T11:30:31;24.23;;;11.97;;
8536;SDS011;4306;50.210;10.628;2024-01-11T11:33:07;22.70;;;12.10;;
8536;SDS011;4306;50.210;10.628;2024-01-11T11:35:36;22.10;;;11.00;;
8536;SDS011;4306;50.210;10.628;2024-01-11T11:38:06;22.83;;;12.17;;
8536;SDS011;4306;50.210;10.628;2024-01-11T11:40:33;20.57;;;12.00;;
8536;SDS011;4306;50.210;10.628;2024-01-11T11:43:05;20.53;;;11.90;;
8536;SDS011;4306;50.210;10.628;2024-01-11T11:45:32;17.57;;;10.47;;
8536;SDS011;4306;50.210;10.628;2024-01-11T11:48:00;23.03;;;11.57;;
8536;SDS011;4306;50.210;10.628;2024-01-11T11:50:29;25.37;;;11.93;;
8536;SDS011;4306;50.210;10.628;2024-01-11T11:52:59;24.27;;;12.30;;
8536;SDS011;4306;50.210;10.628;2024-01-11T11:55:28;25.90;;;12.27;;
8536;SDS011;4306;50.210;10.628;2024-01-11T11:57:56;21.97;;;12.03;;
8536;SDS011;4306;50.210;10.628;2024-01-11T12:00:22;22.23;;;12.37;;
8536;SDS011;4306;50.210;10.628;2024-01-11T12:02:50;20.57;;;11.17;;
8536;SDS011;4306;50.210;10.628;2024-01-11T12:05:18;23.30;;;11.93;;
8536;SDS011;4306;50.210;10.628;2024-01-11T12:07:45;22.07;;;11.47;;
8536;SDS011;4306;50.210;10.628;2024-01-11T12:10:14;23.73;;;11.17;;
8536;SDS011;4306;50.210;10.628;2024-01-11T12:12:42;22.73;;;11.17;;
8536;SDS011;4306;50.210;10.628;2024-01-11T12:15:10;23.73;;;12.93;;
8536;SDS011;4306;50.210;10.628;2024-01-11T12:17:37;18.07;;;10.27;;
8536;SDS011;4306;50.210;10.628;2024-01-11T12:20:07;17.87;;;9.77;;
8536;SDS011;4306;50.210;10.628;2024-01-11T12:22:36;20.40;;;10.73;;
8536;SDS011;4306;50.210;10.628;2024-01-11T12:25:03;17.63;;;9.77;;
8536;SDS011;4306;50.210;10.628;2024-01-11T12:27:33;16.60;;;9.30;;
8536;SDS011;4306;50.210;10.628;2024-01-11T12:30:05;17.03;;;9.43;;
8536;SDS011;4306;50.210;10.628;2024-01-11T12:32:36;15.63;;;8.33;;
8536;SDS011;4306;50.210;10.628;2024-01-11T12:35:03;12.05;;;6.72;;
8536;SDS011;4306;50.210;10.628;2024-01-11T12:37:32;20.60;;;10.10;;
8536;SDS011;4306;50.210;10.628;2024-01-11T12:39:59;15.97;;;8.20;;
8536;SDS011;4306;50.210;10.628;2024-01-11T12:42:26;13.47;;;7.17;;
8536;SDS011;4306;50.210;10.628;2024-01-11T12:44:53;18.40;;;9.00;;
8536;SDS011;4306;50.210;10.628;2024-01-11T12:47:23;16.08;;;8.48;;
8536;SDS011;4306;50.210;10.628;2024-01-11T12:49:50;12.90;;;7.70;;
8536;SDS011;4306;50.210;10.628;2024-01-11T12:52:18;14.53;;;7.97;;
8536;SDS011;4306;50.210;10.628;2024-01-11T12:54:45;14.40;;;8.17;;
8536;SDS011;4306;50.210;10.628;2024-01-11T12:57:32;13.27;;;7.33;;
8536;SDS011;4306;50.210;10.628;2024-01-11T13:00:29;16.57;;;8.33;;
8536;SDS011;4306;50.210;10.628;2024-01-11T13:02:58;15.98;;;8.07;;
8536;SDS011;4306;50.210;10.628;2024-01-11T13:05:25;15.90;;;8.83;;
8536;SDS011;4306;50.210;10.628;2024-01-11T13:07:52;22.53;;;11.67;;
8536;SDS011;4306;50.210;10.628;2024-01-11T13:10:20;18.60;;;10.00;;
8536;SDS011;4306;50.210;10.628;2024-01-11T13:12:52;15.93;;;9.97;;
8536;SDS011;4306;50.210;10.628;2024-01-11T13:18:25;19.30;;;10.60;;
8536;SDS011;4306;50.210;10.628;2024-01-11T13:20:52;18.83;;;10.10;;
8536;SDS011;4306;50.210;10.628;2024-01-11T13:23:20;21.17;;;11.00;;
8536;SDS011;4306;50.210;10.628;2024-01-11T13:25:49;20.00;;;10.67;;
8536;SDS011;4306;50.210;10.628;2024-01-11T13:28:17;21.63;;;11.73;;
8536;SDS011;4306;50.210;10.628;2024-01-11T13:30:45;25.08;;;12.50;;
8536;SDS011;4306;50.210;10.628;2024-01-11T13:33:14;20.48;;;11.48;;
8536;SDS011;4306;50.210;10.628;2024-01-11T13:35:44;18.75;;;11.15;;
8536;SDS011;4306;50.210;10.628;2024-01-11T13:38:11;20.08;;;11.82;;
8536;SDS011;4306;50.210;10.628;2024-01-11T13:40:39;22.48;;;13.00;;
8536;SDS011;4306;50.210;10.628;2024-01-11T13:43:08;23.47;;;12.47;;
8536;SDS011;4306;50.210;10.628;2024-01-11T13:45:36;24.00;;;12.70;;
8536;SDS011;4306;50.210;10.628;2024-01-11T13:48:03;22.63;;;11.93;;
8536;SDS011;4306;50.210;10.628;2024-01-11T13:50:32;23.93;;;12.47;;
8536;SDS011;4306;50.210;10.628;2024-01-11T13:53:01;24.87;;;12.10;;
8536;SDS011;4306;50.210;10.628;2024-01-11T13:55:30;24.23;;;12.90;;
8536;SDS011;4306;50.210;10.628;2024-01-11T13:58:02;21.35;;;11.90;;
8536;SDS011;4306;50.210;10.628;2024-01-11T14:00:30;25.80;;;14.30;;
8536;SDS011;4306;50.210;10.628;2024-01-11T14:02:57;23.60;;;12.97;;
8536;SDS011;4306;50.210;10.628;2024-01-11T14:05:24;24.70;;;13.73;;
8536;SDS011;4306;50.210;10.628;2024-01-11T14:07:52;28.13;;;14.73;;
8536;SDS011;4306;50.210;10.628;2024-01-11T14:10:25;24.90;;;14.10;;
8536;SDS011;4306;50.210;10.628;2024-01-11T14:12:52;28.40;;;16.97;;
8536;SDS011;4306;50.210;10.628;2024-01-11T14:15:19;21.97;;;12.50;;
8536;SDS011;4306;50.210;10.628;2024-01-11T14:17:46;22.67;;;13.10;;
8536;SDS011;4306;50.210;10.628;2024-01-11T14:20:14;24.20;;;13.03;;
8536;SDS011;4306;50.210;10.628;2024-01-11T14:22:42;28.30;;;15.83;;
8536;SDS011;4306;50.210;10.628;2024-01-11T14:25:14;27.13;;;13.93;;
8536;SDS011;4306;50.210;10.628;2024-01-11T14:27:43;23.60;;;13.90;;
8536;SDS011;4306;50.210;10.628;2024-01-11T14:30:11;32.20;;;17.13;;
8536;SDS011;4306;50.210;10.628;2024-01-11T14:32:40;29.05;;;18.25;;
8536;SDS011;4306;50.210;10.628;2024-01-11T14:35:08;26.70;;;14.63;;
8536;SDS011;4306;50.210;10.628;2024-01-11T14:37:37;31.40;;;14.20;;
8536;SDS011;4306;50.210;10.628;2024-01-11T14:40:06;24.77;;;13.85;;
8536;SDS011;4306;50.210;10.628;2024-01-11T14:42:37;25.07;;;15.33;;
8536;SDS011;4306;50.210;10.628;2024-01-11T14:45:06;27.48;;;16.27;;
8536;SDS011;4306;50.210;10.628;2024-01-11T14:47:34;25.70;;;14.43;;
8536;SDS011;4306;50.210;10.628;2024-01-11T14:50:02;26.27;;;15.27;;
8536;SDS011;4306;50.210;10.628;2024-01-11T14:52:34;26.10;;;13.37;;
8536;SDS011;4306;50.210;10.628;2024-01-11T14:55:01;25.05;;;13.52;;